sensor_id;sensor_type;location;lat;lon;timestamp;P1;durP1;ratioP1;P2;durP2;ratioP2
5209;SDS011;2624;48.048;11.706;2023-09-08T00:02:11;6.47;;;3.53;;
5209;SDS011;2624;48.048;11.706;2023-09-08T00:07:14;3.30;;;3.10;;
5209;SDS011;2624;48.048;11.706;2023-09-08T00:12:16;5.43;;;3.67;;
5209;SDS011;2624;48.048;11.706;2023-09-08T00:17:18;4.90;;;4.00;;
5209;SDS011;2624;48.048;11.706;2023-09-08T00:22:21;5.40;;;3.67;;
5209;SDS011;2624;48.048;11.706;2023-09-08T00:27:23;4.90;;;3.70;;
5209;SDS011;2624;48.048;11.706;2023-09-08T00:32:24;4.30;;;3.90;;
5209;SDS011;2624;48.048;11.706;2023-09-08T00:37:28;3.80;;;3.40;;
5209;SDS011;2624;48.048;11.706;2023-09-08T00:42:29;4.80;;;4.27;;
5209;SDS011;2624;48.048;11.706;2023-09-08T00:47:31;6.17;;;3.70;;
5209;SDS011;2624;48.048;11.706;2023-09-08T00:52:35;3.60;;;3.30;;
5209;SDS011;2624;48.048;11.706;2023-09-08T00:57:37;4.57;;;3.40;;
5209;SDS011;2624;48.048;11.706;2023-09-08T01:02:39;5.30;;;3.70;;
5209;SDS011;2624;48.048;11.706;2023-09-08T01:07:42;4.20;;;3.90;;
5209;SDS011;2624;48.048;11.706;2023-09-08T01:12:45;4.20;;;3.90;;
5209;SDS011;2624;48.048;11.706;2023-09-08T01:17:47;3.73;;;3.43;;
5209;SDS011;2624;48.048;11.706;2023-09-08T01:23:07;2.90;;;2.80;;
5209;SDS011;2624;48.048;11.706;2023-09-08T01:28:19;4.40;;;4.00;;
5209;SDS011;2624;48.048;11.706;2023-09-08T01:33:23;3.37;;;3.07;;
5209;SDS011;2624;48.048;11.706;2023-09-08T01:38:25;3.20;;;3.00;;
5209;SDS011;2624;48.048;11.706;2023-09-08T01:43:28;3.63;;;3.40;;
5209;SDS011;2624;48.048;11.706;2023-09-08T01:48:30;4.27;;;3.47;;
5209;SDS011;2624;48.048;11.706;2023-09-08T01:53:32;4.93;;;3.93;;
5209;SDS011;2624;48.048;11.706;2023-09-08T01:58:35;5.90;;;4.20;;
5209;SDS011;2624;48.048;11.706;2023-09-08T02:03:37;7.23;;;4.10;;
5209;SDS011;2624;48.048;11.706;2023-09-08T02:08:39;4.73;;;3.57;;
5209;SDS011;2624;48.048;11.706;2023-09-08T02:13:42;6.50;;;3.27;;
5209;SDS011;2624;48.048;11.706;2023-09-08T02:18:44;4.13;;;3.77;;
5209;SDS011;2624;48.048;11.706;2023-09-08T02:23:46;5.60;;;3.73;;
5209;SDS011;2624;48.048;11.706;2023-09-08T02:28:49;5.37;;;3.40;;
5209;SDS011;2624;48.048;11.706;2023-09-08T02:33:51;6.20;;;3.47;;
5209;SDS011;2624;48.048;11.706;2023-09-08T02:38:52;4.13;;;3.73;;
5209;SDS011;2624;48.048;11.706;2023-09-08T02:43:56;4.10;;;3.70;;
5209;SDS011;2624;48.048;11.706;2023-09-08T02:48:57;3.40;;;3.20;;
5209;SDS011;2624;48.048;11.706;2023-09-08T02:53:59;4.33;;;4.00;;
5209;SDS011;2624;48.048;11.706;2023-09-08T02:59:02;5.13;;;3.57;;
5209;SDS011;2624;48.048;11.706;2023-09-08T03:04:04;5.93;;;3.70;;
5209;SDS011;2624;48.048;11.706;2023-09-08T03:09:06;3.93;;;3.63;;
5209;SDS011;2624;48.048;11.706;2023-09-08T03:14:09;4.47;;;4.07;;
5209;SDS011;2624;48.048;11.706;2023-09-08T03:19:11;10.00;;;3.80;;
5209;SDS011;2624;48.048;11.706;2023-09-08T03:24:13;5.73;;;4.20;;
5209;SDS011;2624;48.048;11.706;2023-09-08T03:29:16;6.73;;;4.20;;
5209;SDS011;2624;48.048;11.706;2023-09-08T03:34:18;3.80;;;3.60;;
5209;SDS011;2624;48.048;11.706;2023-09-08T03:39:20;3.83;;;3.63;;
5209;SDS011;2624;48.048;11.706;2023-09-08T03:44:23;4.47;;;3.83;;
5209;SDS011;2624;48.048;11.706;2023-09-08T03:49:25;4.13;;;3.77;;
5209;SDS011;2624;48.048;11.706;2023-09-08T03:54:27;3.90;;;3.60;;
5209;SDS011;2624;48.048;11.706;2023-09-08T03:59:30;4.10;;;3.80;;
5209;SDS011;2624;48.048;11.706;2023-09-08T04:04:31;4.13;;;3.73;;
5209;SDS011;2624;48.048;11.706;2023-09-08T04:09:33;3.97;;;3.67;;
5209;SDS011;2624;48.048;11.706;2023-09-08T04:14:36;5.03;;;4.10;;
5209;SDS011;2624;48.048;11.706;2023-09-08T04:19:38;7.77;;;4.70;;
5209;SDS011;2624;48.048;11.706;2023-09-08T04:24:40;3.47;;;3.17;;
5209;SDS011;2624;48.048;11.706;2023-09-08T04:29:43;5.40;;;3.57;;
5209;SDS011;2624;48.048;11.706;2023-09-08T04:34:44;4.43;;;4.03;;
5209;SDS011;2624;48.048;11.706;2023-09-08T04:39:46;7.23;;;3.70;;
5209;SDS011;2624;48.048;11.706;2023-09-08T04:44:49;5.50;;;3.90;;
5209;SDS011;2624;48.048;11.706;2023-09-08T04:49:51;6.83;;;4.10;;
5209;SDS011;2624;48.048;11.706;2023-09-08T04:54:53;4.20;;;3.90;;
5209;SDS011;2624;48.048;11.706;2023-09-08T04:59:56;4.03;;;3.67;;
5209;SDS011;2624;48.048;11.706;2023-09-08T05:04:58;4.40;;;3.87;;
5209;SDS011;2624;48.048;11.706;2023-09-08T05:10:00;5.80;;;4.73;;
5209;SDS011;2624;48.048;11.706;2023-09-08T05:15:03;11.13;;;3.43;;
5209;SDS011;2624;48.048;11.706;2023-09-08T05:20:06;5.63;;;4.10;;
5209;SDS011;2624;48.048;11.706;2023-09-08T05:25:09;6.13;;;3.30;;
5209;SDS011;2624;48.048;11.706;2023-09-08T05:30:12;3.93;;;3.47;;
5209;SDS011;2624;48.048;11.706;2023-09-08T05:35:14;4.40;;;3.90;;
5209;SDS011;2624;48.048;11.706;2023-09-08T05:40:16;9.03;;;3.73;;
5209;SDS011;2624;48.048;11.706;2023-09-08T05:45:20;6.67;;;4.03;;
5209;SDS011;2624;48.048;11.706;2023-09-08T05:50:22;6.13;;;5.50;;
5209;SDS011;2624;48.048;11.706;2023-09-08T05:55:24;6.53;;;4.60;;
5209;SDS011;2624;48.048;11.706;2023-09-08T06:00:27;4.87;;;4.47;;
5209;SDS011;2624;48.048;11.706;2023-09-08T06:05:29;7.63;;;5.83;;
5209;SDS011;2624;48.048;11.706;2023-09-08T06:10:30;6.50;;;4.87;;
5209;SDS011;2624;48.048;11.706;2023-09-08T06:15:33;8.93;;;5.07;;
5209;SDS011;2624;48.048;11.706;2023-09-08T06:20:35;8.33;;;5.20;;
5209;SDS011;2624;48.048;11.706;2023-09-08T06:25:37;6.27;;;5.20;;
5209;SDS011;2624;48.048;11.706;2023-09-08T06:30:40;11.17;;;5.30;;
5209;SDS011;2624;48.048;11.706;2023-09-08T06:35:42;10.30;;;5.30;;
5209;SDS011;2624;48.048;11.706;2023-09-08T06:40:44;5.90;;;5.23;;
5209;SDS011;2624;48.048;11.706;2023-09-08T06:45:48;5.40;;;4.77;;
5209;SDS011;2624;48.048;11.706;2023-09-08T06:50:52;6.27;;;5.67;;
5209;SDS011;2624;48.048;11.706;2023-09-08T06:55:56;6.53;;;4.90;;
5209;SDS011;2624;48.048;11.706;2023-09-08T07:00:59;6.37;;;5.77;;
5209;SDS011;2624;48.048;11.706;2023-09-08T07:06:01;9.47;;;5.97;;
5209;SDS011;2624;48.048;11.706;2023-09-08T07:11:02;8.13;;;6.10;;
5209;SDS011;2624;48.048;11.706;2023-09-08T07:16:05;10.37;;;6.20;;
5209;SDS011;2624;48.048;11.706;2023-09-08T07:21:07;8.70;;;6.30;;
5209;SDS011;2624;48.048;11.706;2023-09-08T07:26:09;12.10;;;6.33;;
5209;SDS011;2624;48.048;11.706;2023-09-08T07:31:12;7.70;;;6.93;;
5209;SDS011;2624;48.048;11.706;2023-09-08T07:36:15;10.20;;;5.87;;
5209;SDS011;2624;48.048;11.706;2023-09-08T07:41:16;7.50;;;5.93;;
5209;SDS011;2624;48.048;11.706;2023-09-08T07:46:20;8.60;;;6.40;;
5209;SDS011;2624;48.048;11.706;2023-09-08T07:51:21;8.20;;;6.13;;
5209;SDS011;2624;48.048;11.706;2023-09-08T07:56:23;8.60;;;6.27;;
5209;SDS011;2624;48.048;11.706;2023-09-08T08:01:26;6.00;;;5.40;;
5209;SDS011;2624;48.048;11.706;2023-09-08T08:06:28;12.70;;;7.40;;
5209;SDS011;2624;48.048;11.706;2023-09-08T08:11:30;7.90;;;5.83;;
5209;SDS011;2624;48.048;11.706;2023-09-08T08:16:33;6.60;;;6.00;;
5209;SDS011;2624;48.048;11.706;2023-09-08T08:21:35;7.93;;;7.13;;
5209;SDS011;2624;48.048;11.706;2023-09-08T08:26:38;7.43;;;6.63;;
5209;SDS011;2624;48.048;11.706;2023-09-08T08:31:41;9.13;;;6.37;;
5209;SDS011;2624;48.048;11.706;2023-09-08T08:36:42;7.10;;;5.93;;
5209;SDS011;2624;48.048;11.706;2023-09-08T08:41:44;7.53;;;5.70;;
5209;SDS011;2624;48.048;11.706;2023-09-08T08:46:47;8.93;;;6.07;;
5209;SDS011;2624;48.048;11.706;2023-09-08T08:51:50;6.90;;;5.50;;
5209;SDS011;2624;48.048;11.706;2023-09-08T08:56:53;10.67;;;6.70;;
5209;SDS011;2624;48.048;11.706;2023-09-08T09:01:56;10.60;;;5.50;;
5209;SDS011;2624;48.048;11.706;2023-09-08T09:06:59;9.17;;;6.27;;
5209;SDS011;2624;48.048;11.706;2023-09-08T09:12:01;10.33;;;7.17;;
5209;SDS011;2624;48.048;11.706;2023-09-08T09:17:04;6.63;;;4.90;;
5209;SDS011;2624;48.048;11.706;2023-09-08T09:22:11;10.30;;;7.23;;
5209;SDS011;2624;48.048;11.706;2023-09-08T09:27:13;9.70;;;6.60;;
5209;SDS011;2624;48.048;11.706;2023-09-08T09:32:17;9.27;;;7.10;;
5209;SDS011;2624;48.048;11.706;2023-09-08T09:37:24;11.30;;;7.30;;
5209;SDS011;2624;48.048;11.706;2023-09-08T09:42:27;6.37;;;5.77;;
5209;SDS011;2624;48.048;11.706;2023-09-08T09:47:31;9.93;;;7.00;;
5209;SDS011;2624;48.048;11.706;2023-09-08T09:52:33;7.27;;;6.43;;
5209;SDS011;2624;48.048;11.706;2023-09-08T09:57:40;6.77;;;5.80;;
5209;SDS011;2624;48.048;11.706;2023-09-08T10:02:43;13.87;;;6.60;;
5209;SDS011;2624;48.048;11.706;2023-09-08T10:07:46;12.10;;;6.70;;
5209;SDS011;2624;48.048;11.706;2023-09-08T10:12:49;11.03;;;7.00;;
5209;SDS011;2624;48.048;11.706;2023-09-08T10:17:55;10.37;;;5.77;;
5209;SDS011;2624;48.048;11.706;2023-09-08T10:23:02;11.73;;;6.10;;
5209;SDS011;2624;48.048;11.706;2023-09-08T10:28:08;12.77;;;7.70;;
5209;SDS011;2624;48.048;11.706;2023-09-08T10:33:12;8.07;;;6.37;;
5209;SDS011;2624;48.048;11.706;2023-09-08T10:38:21;7.67;;;6.47;;
5209;SDS011;2624;48.048;11.706;2023-09-08T10:43:23;7.60;;;6.77;;
5209;SDS011;2624;48.048;11.706;2023-09-08T10:48:26;10.13;;;7.57;;
5209;SDS011;2624;48.048;11.706;2023-09-08T10:53:31;6.93;;;6.23;;
5209;SDS011;2624;48.048;11.706;2023-09-08T10:58:33;7.80;;;6.17;;
5209;SDS011;2624;48.048;11.706;2023-09-08T11:03:46;9.60;;;7.20;;
5209;SDS011;2624;48.048;11.706;2023-09-08T11:08:50;7.13;;;6.40;;
5209;SDS011;2624;48.048;11.706;2023-09-08T11:13:55;10.80;;;6.97;;
5209;SDS011;2624;48.048;11.706;2023-09-08T11:18:59;7.20;;;6.50;;
5209;SDS011;2624;48.048;11.706;2023-09-08T11:24:05;7.17;;;6.47;;
5209;SDS011;2624;48.048;11.706;2023-09-08T11:29:07;9.47;;;6.60;;
5209;SDS011;2624;48.048;11.706;2023-09-08T11:34:12;7.47;;;6.67;;
5209;SDS011;2624;48.048;11.706;2023-09-08T11:39:15;5.83;;;5.23;;
5209;SDS011;2624;48.048;11.706;2023-09-08T11:44:16;10.63;;;6.77;;
5209;SDS011;2624;48.048;11.706;2023-09-08T11:49:20;7.97;;;5.83;;
5209;SDS011;2624;48.048;11.706;2023-09-08T11:54:23;6.90;;;5.80;;
5209;SDS011;2624;48.048;11.706;2023-09-08T11:59:25;5.80;;;5.20;;
5209;SDS011;2624;48.048;11.706;2023-09-08T12:04:29;8.10;;;6.20;;
5209;SDS011;2624;48.048;11.706;2023-09-08T12:09:31;8.10;;;6.50;;
5209;SDS011;2624;48.048;11.706;2023-09-08T12:14:39;6.00;;;5.40;;
5209;SDS011;2624;48.048;11.706;2023-09-08T12:19:43;8.93;;;6.10;;
5209;SDS011;2624;48.048;11.706;2023-09-08T12:24:49;7.53;;;4.80;;
5209;SDS011;2624;48.048;11.706;2023-09-08T12:29:57;8.27;;;6.30;;
5209;SDS011;2624;48.048;11.706;2023-09-08T12:35:03;8.10;;;5.50;;
5209;SDS011;2624;48.048;11.706;2023-09-08T12:40:05;7.80;;;6.67;;
5209;SDS011;2624;48.048;11.706;2023-09-08T12:45:09;6.33;;;5.73;;
5209;SDS011;2624;48.048;11.706;2023-09-08T12:50:12;6.40;;;5.87;;
5209;SDS011;2624;48.048;11.706;2023-09-08T12:55:14;6.20;;;5.60;;
5209;SDS011;2624;48.048;11.706;2023-09-08T13:00:16;7.80;;;5.53;;
5209;SDS011;2624;48.048;11.706;2023-09-08T13:05:19;8.67;;;6.70;;
5209;SDS011;2624;48.048;11.706;2023-09-08T13:10:21;16.73;;;6.97;;
5209;SDS011;2624;48.048;11.706;2023-09-08T13:15:23;7.47;;;5.87;;
5209;SDS011;2624;48.048;11.706;2023-09-08T13:20:26;7.87;;;6.90;;
5209;SDS011;2624;48.048;11.706;2023-09-08T13:25:28;6.70;;;6.00;;
5209;SDS011;2624;48.048;11.706;2023-09-08T13:30:30;11.93;;;6.80;;
5209;SDS011;2624;48.048;11.706;2023-09-08T13:35:33;8.87;;;6.87;;
5209;SDS011;2624;48.048;11.706;2023-09-08T13:40:34;8.00;;;7.17;;
5209;SDS011;2624;48.048;11.706;2023-09-08T13:45:36;7.10;;;6.30;;
5209;SDS011;2624;48.048;11.706;2023-09-08T13:50:39;7.60;;;6.60;;
5209;SDS011;2624;48.048;11.706;2023-09-08T13:55:41;11.07;;;6.60;;
5209;SDS011;2624;48.048;11.706;2023-09-08T14:00:43;8.90;;;6.67;;
5209;SDS011;2624;48.048;11.706;2023-09-08T14:05:46;10.03;;;6.87;;
5209;SDS011;2624;48.048;11.706;2023-09-08T14:10:48;9.17;;;5.80;;
5209;SDS011;2624;48.048;11.706;2023-09-08T14:15:51;8.10;;;5.27;;
5209;SDS011;2624;48.048;11.706;2023-09-08T14:20:54;7.03;;;5.60;;
5209;SDS011;2624;48.048;11.706;2023-09-08T14:25:55;8.20;;;6.33;;
5209;SDS011;2624;48.048;11.706;2023-09-08T14:30:57;7.50;;;6.13;;
5209;SDS011;2624;48.048;11.706;2023-09-08T14:36:00;8.77;;;6.00;;
5209;SDS011;2624;48.048;11.706;2023-09-08T14:41:02;6.93;;;6.23;;
5209;SDS011;2624;48.048;11.706;2023-09-08T14:46:04;6.00;;;5.13;;
5209;SDS011;2624;48.048;11.706;2023-09-08T14:51:07;5.57;;;5.07;;
5209;SDS011;2624;48.048;11.706;2023-09-08T14:56:09;12.17;;;5.33;;
5209;SDS011;2624;48.048;11.706;2023-09-08T15:01:11;15.13;;;6.17;;
5209;SDS011;2624;48.048;11.706;2023-09-08T15:06:15;7.67;;;5.60;;
5209;SDS011;2624;48.048;11.706;2023-09-08T15:11:17;5.83;;;5.30;;
5209;SDS011;2624;48.048;11.706;2023-09-08T15:16:18;6.90;;;5.83;;
5209;SDS011;2624;48.048;11.706;2023-09-08T15:21:22;5.73;;;4.87;;
5209;SDS011;2624;48.048;11.706;2023-09-08T15:26:27;10.93;;;5.87;;
5209;SDS011;2624;48.048;11.706;2023-09-08T15:31:29;8.07;;;6.10;;
5209;SDS011;2624;48.048;11.706;2023-09-08T15:36:32;5.80;;;5.23;;
5209;SDS011;2624;48.048;11.706;2023-09-08T15:41:34;5.77;;;5.13;;
5209;SDS011;2624;48.048;11.706;2023-09-08T15:46:36;13.70;;;5.20;;
5209;SDS011;2624;48.048;11.706;2023-09-08T15:51:39;7.57;;;4.97;;
5209;SDS011;2624;48.048;11.706;2023-09-08T15:56:41;10.77;;;4.90;;
5209;SDS011;2624;48.048;11.706;2023-09-08T16:01:42;7.60;;;4.93;;
5209;SDS011;2624;48.048;11.706;2023-09-08T16:06:45;6.07;;;5.43;;
5209;SDS011;2624;48.048;11.706;2023-09-08T16:11:48;5.83;;;5.20;;
5209;SDS011;2624;48.048;11.706;2023-09-08T16:16:50;6.03;;;5.33;;
5209;SDS011;2624;48.048;11.706;2023-09-08T16:21:53;8.63;;;6.90;;
5209;SDS011;2624;48.048;11.706;2023-09-08T16:26:54;7.70;;;6.90;;
5209;SDS011;2624;48.048;11.706;2023-09-08T16:31:58;8.43;;;6.70;;
5209;SDS011;2624;48.048;11.706;2023-09-08T16:37:01;6.37;;;5.77;;
5209;SDS011;2624;48.048;11.706;2023-09-08T16:42:03;7.70;;;6.00;;
5209;SDS011;2624;48.048;11.706;2023-09-08T16:47:05;6.97;;;6.30;;
5209;SDS011;2624;48.048;11.706;2023-09-08T16:52:08;8.83;;;6.90;;
5209;SDS011;2624;48.048;11.706;2023-09-08T16:57:10;13.90;;;6.23;;
5209;SDS011;2624;48.048;11.706;2023-09-08T17:02:12;6.87;;;6.17;;
5209;SDS011;2624;48.048;11.706;2023-09-08T17:07:15;7.10;;;6.40;;
5209;SDS011;2624;48.048;11.706;2023-09-08T17:12:17;7.53;;;6.70;;
5209;SDS011;2624;48.048;11.706;2023-09-08T17:17:18;11.10;;;5.97;;
5209;SDS011;2624;48.048;11.706;2023-09-08T17:22:22;11.17;;;6.00;;
5209;SDS011;2624;48.048;11.706;2023-09-08T17:27:23;9.40;;;6.10;;
5209;SDS011;2624;48.048;11.706;2023-09-08T17:32:25;8.00;;;5.87;;
5209;SDS011;2624;48.048;11.706;2023-09-08T17:37:29;6.27;;;5.67;;
5209;SDS011;2624;48.048;11.706;2023-09-08T17:42:31;6.30;;;5.70;;
5209;SDS011;2624;48.048;11.706;2023-09-08T17:47:33;7.97;;;6.10;;
5209;SDS011;2624;48.048;11.706;2023-09-08T17:52:36;7.43;;;5.13;;
5209;SDS011;2624;48.048;11.706;2023-09-08T17:57:37;12.07;;;6.50;;
5209;SDS011;2624;48.048;11.706;2023-09-08T18:02:39;6.70;;;5.67;;
5209;SDS011;2624;48.048;11.706;2023-09-08T18:07:42;8.37;;;6.30;;
5209;SDS011;2624;48.048;11.706;2023-09-08T18:12:45;6.43;;;5.93;;
5209;SDS011;2624;48.048;11.706;2023-09-08T18:17:46;5.90;;;5.43;;
5209;SDS011;2624;48.048;11.706;2023-09-08T18:22:49;7.03;;;6.33;;
5209;SDS011;2624;48.048;11.706;2023-09-08T18:27:54;7.90;;;5.90;;
5209;SDS011;2624;48.048;11.706;2023-09-08T18:32:56;6.13;;;5.63;;
5209;SDS011;2624;48.048;11.706;2023-09-08T18:37:59;6.60;;;5.67;;
5209;SDS011;2624;48.048;11.706;2023-09-08T18:43:01;6.50;;;5.90;;
5209;SDS011;2624;48.048;11.706;2023-09-08T18:48:03;6.37;;;5.80;;
5209;SDS011;2624;48.048;11.706;2023-09-08T18:53:06;6.80;;;6.10;;
5209;SDS011;2624;48.048;11.706;2023-09-08T18:58:08;7.03;;;6.37;;
5209;SDS011;2624;48.048;11.706;2023-09-08T19:03:10;8.93;;;6.20;;
5209;SDS011;2624;48.048;11.706;2023-09-08T19:08:13;6.83;;;6.00;;
5209;SDS011;2624;48.048;11.706;2023-09-08T19:13:15;6.63;;;6.03;;
5209;SDS011;2624;48.048;11.706;2023-09-08T19:18:17;8.17;;;5.93;;
5209;SDS011;2624;48.048;11.706;2023-09-08T19:23:20;9.40;;;6.40;;
5209;SDS011;2624;48.048;11.706;2023-09-08T19:28:22;7.67;;;5.90;;
5209;SDS011;2624;48.048;11.706;2023-09-08T19:33:23;6.53;;;6.00;;
5209;SDS011;2624;48.048;11.706;2023-09-08T19:38:27;8.40;;;7.00;;
5209;SDS011;2624;48.048;11.706;2023-09-08T19:43:29;7.77;;;7.07;;
5209;SDS011;2624;48.048;11.706;2023-09-08T19:48:31;7.83;;;5.47;;
5209;SDS011;2624;48.048;11.706;2023-09-08T19:53:35;8.80;;;6.37;;
5209;SDS011;2624;48.048;11.706;2023-09-08T19:58:37;11.40;;;8.20;;
5209;SDS011;2624;48.048;11.706;2023-09-08T20:03:39;6.93;;;6.17;;
5209;SDS011;2624;48.048;11.706;2023-09-08T20:08:42;7.27;;;6.57;;
5209;SDS011;2624;48.048;11.706;2023-09-08T20:13:44;8.90;;;7.37;;
5209;SDS011;2624;48.048;11.706;2023-09-08T20:18:46;9.43;;;8.10;;
5209;SDS011;2624;48.048;11.706;2023-09-08T20:23:49;6.90;;;6.20;;
5209;SDS011;2624;48.048;11.706;2023-09-08T20:28:51;7.37;;;6.50;;
5209;SDS011;2624;48.048;11.706;2023-09-08T20:33:53;6.60;;;6.03;;
5209;SDS011;2624;48.048;11.706;2023-09-08T20:38:56;7.87;;;6.37;;
5209;SDS011;2624;48.048;11.706;2023-09-08T20:43:58;6.77;;;5.60;;
5209;SDS011;2624;48.048;11.706;2023-09-08T20:49:00;6.83;;;6.17;;
5209;SDS011;2624;48.048;11.706;2023-09-08T20:54:03;12.20;;;6.47;;
5209;SDS011;2624;48.048;11.706;2023-09-08T20:59:06;7.60;;;6.53;;
5209;SDS011;2624;48.048;11.706;2023-09-08T21:04:09;7.07;;;6.00;;
5209;SDS011;2624;48.048;11.706;2023-09-08T21:09:12;17.80;;;6.60;;
5209;SDS011;2624;48.048;11.706;2023-09-08T21:14:14;6.87;;;6.17;;
5209;SDS011;2624;48.048;11.706;2023-09-08T21:19:16;8.93;;;5.53;;
5209;SDS011;2624;48.048;11.706;2023-09-08T21:24:19;8.57;;;6.20;;
5209;SDS011;2624;48.048;11.706;2023-09-08T21:29:21;10.20;;;7.03;;
5209;SDS011;2624;48.048;11.706;2023-09-08T21:34:23;7.67;;;6.87;;
5209;SDS011;2624;48.048;11.706;2023-09-08T21:39:26;7.23;;;6.00;;
5209;SDS011;2624;48.048;11.706;2023-09-08T21:44:28;8.80;;;6.20;;
5209;SDS011;2624;48.048;11.706;2023-09-08T21:49:31;6.77;;;5.90;;
5209;SDS011;2624;48.048;11.706;2023-09-08T21:54:34;7.57;;;6.77;;
5209;SDS011;2624;48.048;11.706;2023-09-08T21:59:36;8.60;;;6.40;;
5209;SDS011;2624;48.048;11.706;2023-09-08T22:04:37;12.27;;;7.57;;
5209;SDS011;2624;48.048;11.706;2023-09-08T22:09:40;7.37;;;6.67;;
5209;SDS011;2624;48.048;11.706;2023-09-08T22:14:42;15.03;;;6.20;;
5209;SDS011;2624;48.048;11.706;2023-09-08T22:19:44;7.23;;;6.53;;
5209;SDS011;2624;48.048;11.706;2023-09-08T22:24:47;12.67;;;7.27;;
5209;SDS011;2624;48.048;11.706;2023-09-08T22:29:49;8.93;;;7.10;;
5209;SDS011;2624;48.048;11.706;2023-09-08T22:34:50;6.70;;;5.93;;
5209;SDS011;2624;48.048;11.706;2023-09-08T22:39:54;7.17;;;6.47;;
5209;SDS011;2624;48.048;11.706;2023-09-08T22:44:55;8.23;;;6.47;;
5209;SDS011;2624;48.048;11.706;2023-09-08T22:49:58;10.27;;;6.90;;
5209;SDS011;2624;48.048;11.706;2023-09-08T22:55:02;7.70;;;6.90;;
5209;SDS011;2624;48.048;11.706;2023-09-08T23:00:05;7.70;;;6.90;;
5209;SDS011;2624;48.048;11.706;2023-09-08T23:05:10;8.03;;;6.60;;
5209;SDS011;2624;48.048;11.706;2023-09-08T23:10:14;6.90;;;6.20;;
5209;SDS011;2624;48.048;11.706;2023-09-08T23:15:16;6.73;;;6.03;;
5209;SDS011;2624;48.048;11.706;2023-09-08T23:20:18;7.70;;;6.10;;
5209;SDS011;2624;48.048;11.706;2023-09-08T23:25:21;8.30;;;5.83;;
5209;SDS011;2624;48.048;11.706;2023-09-08T23:30:23;10.70;;;6.27;;
5209;SDS011;2624;48.048;11.706;2023-09-08T23:35:25;6.50;;;5.90;;
5209;SDS011;2624;48.048;11.706;2023-09-08T23:40:28;10.47;;;6.43;;
5209;SDS011;2624;48.048;11.706;2023-09-08T23:45:30;8.97;;;6.77;;
5209;SDS011;2624;48.048;11.706;2023-09-08T23:50:48;7.83;;;6.00;;
5209;SDS011;2624;48.048;11.706;2023-09-08T23:55:53;9.27;;;5.33;;
